Airfield :
LOGIN :

Register | Disclaimer

   EN    FR    IT 

 










Legend :    VFR   Marginal VFR   IFR   Intensive IFR   Very Intensive IFR
Visi :
Ceiling :
>= 8 km
>= 3000ft
5 to 8 km
1000 to 3000 ft
1500m to 5 km
500 to 1000 ft
800 to 1500m
200 to 500 ft
< 800m
< 200 ft
Symbols :   Thunderstorms  Fog  Heavy snow  Heavy precipitations  Wind > 20 kt
SIGMETs :     Misc.  Thunderstorms  Icing  Turbulence  Mountain Waves  Volcanic Ashes






- Airport Elevation : 141 ft
- IATA code : TGD


LYPG - Podgorica - Montenegro

CURRENT METAR :
  • 150500Z 01004KT 9999 FEW040 24/16 Q1010 NOSIG

EXPIRED METARs :
  • 150430Z 35006KT 9999 FEW040 24/16 Q1010 NOSIG
  • 150400Z 36004KT 9999 FEW040 23/16 Q1010 NOSIG
  • 150330Z VRB02KT CAVOK 23/16 Q1010 NOSIG
  • 150300Z 01004KT 300V030 CAVOK 23/16 Q1010 NOSIG
  • 150230Z VRB02KT CAVOK 24/16 Q1010 NOSIG

TAF TAF LYPG
Valid from the 15 at 00:00 until the 16 at 00:00 UTC


142300Z 1500/1524 36005KT CAVOK TX35/1514Z TN22/1503Z
PROB40
TEMPO 1513/1517 VRB15G25KT TSRA FEW030CB SCT040



MET'MAP, your aeronautical weather chart ! - Copyright ORBIFLY December 2007 - Disclaimer

ORBIFLY MET'MAP TEAM :

Programming & Development : Alexandra Zaïnal
Concept & original design : Baudouin d'Aumeries
Assistance for programming : Marc-Olivier Méhu
Technical & hardware support : Manuel Goepfert

Contact : metmap@orbifly.com




SOURCES & CREDITS :

   NOAA